Time;durP1;ratioP1;P1;durP2;ratioP2;P2;SDS_P1;SDS_P2;PMS_P1;PMS_P2;Temp;Humidity;BMP_temperature;BMP_pressure;BME280_temperature;BME280_humidity;BME280_pressure;Samples;Min_cycle;Max_cycle;Signal;HPM_P1;HPM_P2
2023/10/15 00:00:15;;;;;;;14.80;8.98;;;;;;;;;;5085484;28;20023;-91
2023/10/15 00:02:42;;;;;;;11.68;9.98;;;;;;;;;;5066134;28;20020;-92
2023/10/15 00:05:12;;;;;;;14.73;9.27;;;;;;;;;;5078195;28;20032;-93
2023/10/15 00:07:39;;;;;;;12.07;9.88;;;;;;;;;;5062065;28;20036;-93
2023/10/15 00:10:19;;;;;;;13.00;9.32;;;;;;;;;;5065390;28;20390;-91
2023/10/15 00:12:51;;;;;;;14.10;9.68;;;;;;;;;;5076337;28;20539;-90
2023/10/15 00:15:23;;;;;;;13.23;8.95;;;;;;;;;;5058567;28;20424;-89
2023/10/15 00:17:53;;;;;;;10.82;9.70;;;;;;;;;;5075321;28;20016;-90
2023/10/15 00:20:22;;;;;;;10.35;9.27;;;;;;;;;;5045522;28;20053;-89
2023/10/15 00:22:49;;;;;;;13.20;9.48;;;;;;;;;;5056071;28;20487;-90
2023/10/15 00:25:18;;;;;;;11.70;8.93;;;;;;;;;;5058129;28;20421;-91
2023/10/15 00:27:52;;;;;;;15.02;9.48;;;;;;;;;;5057826;28;20638;-91
2023/10/15 00:30:19;;;;;;;11.00;9.45;;;;;;;;;;5076420;28;20021;-88
2023/10/15 00:32:46;;;;;;;12.97;10.30;;;;;;;;;;5057564;28;20028;-88
2023/10/15 00:35:19;;;;;;;15.48;11.20;;;;;;;;;;5075951;28;20344;-90
2023/10/15 00:38:19;;;;;;;19.40;9.65;;;;;;;;;;5057988;28;20033;-87
2023/10/15 00:40:37;;;;;;;14.63;9.82;;;;;;;;;;5064068;28;20035;-87
2023/10/15 00:43:05;;;;;;;13.05;9.88;;;;;;;;;;5057030;28;20040;-87
2023/10/15 00:45:39;;;;;;;10.70;9.60;;;;;;;;;;5085450;28;20432;-88
2023/10/15 00:50:38;;;;;;;11.60;9.70;;;;;;;;;;5086151;28;20032;-87
2023/10/15 00:53:06;;;;;;;17.02;10.82;;;;;;;;;;5064250;28;20036;-87
2023/10/15 00:55:36;;;;;;;12.68;10.20;;;;;;;;;;5061592;28;20035;-91
2023/10/15 00:58:08;;;;;;;14.13;9.18;;;;;;;;;;5096769;28;20081;-88
2023/10/15 01:00:53;;;;;;;13.63;10.18;;;;;;;;;;5080712;28;20020;-89
2023/10/15 01:03:30;;;;;;;13.35;9.25;;;;;;;;;;5075978;28;20111;-89
2023/10/15 01:05:59;;;;;;;12.68;9.85;;;;;;;;;;5076489;28;20516;-90
2023/10/15 01:08:40;;;;;;;11.77;10.20;;;;;;;;;;5057612;28;20028;-90
2023/10/15 01:11:10;;;;;;;13.32;10.07;;;;;;;;;;5045564;28;20082;-89
2023/10/15 01:13:37;;;;;;;15.20;9.88;;;;;;;;;;5074862;28;20033;-92
2023/10/15 01:16:05;;;;;;;12.98;9.20;;;;;;;;;;5074909;28;20027;-90
2023/10/15 01:18:31;;;;;;;11.52;10.32;;;;;;;;;;5057033;28;20028;-88
2023/10/15 01:21:01;;;;;;;12.93;9.57;;;;;;;;;;5059699;28;20031;-90
2023/10/15 01:26:17;;;;;;;12.02;8.48;;;;;;;;;;5078775;28;20096;-89
2023/10/15 01:28:45;;;;;;;13.63;9.68;;;;;;;;;;5082638;28;20029;-88
2023/10/15 01:31:15;;;;;;;13.88;10.18;;;;;;;;;;5080023;28;20017;-88
2023/10/15 01:33:49;;;;;;;12.00;9.95;;;;;;;;;;5071741;28;20020;-88
2023/10/15 01:36:19;;;;;;;12.98;10.20;;;;;;;;;;5059259;28;20021;-88
2023/10/15 01:38:45;;;;;;;11.77;9.60;;;;;;;;;;5076168;28;20021;-88
2023/10/15 01:41:15;;;;;;;15.35;9.52;;;;;;;;;;5056073;28;20477;-89
2023/10/15 01:43:46;;;;;;;12.48;9.55;;;;;;;;;;5061647;28;20465;-88
2023/10/15 01:46:12;;;;;;;11.93;10.40;;;;;;;;;;5072301;28;20024;-87
2023/10/15 01:48:40;;;;;;;15.73;10.98;;;;;;;;;;5090307;28;20031;-87
2023/10/15 01:51:07;;;;;;;16.00;10.77;;;;;;;;;;5085923;28;20434;-88
2023/10/15 01:53:39;;;;;;;12.98;8.93;;;;;;;;;;5075771;28;20060;-90
2023/10/15 01:56:06;;;;;;;14.18;10.48;;;;;;;;;;5074577;28;20051;-88
2023/10/15 01:58:33;;;;;;;14.65;10.02;;;;;;;;;;5075764;28;20036;-87
2023/10/15 02:01:05;;;;;;;12.70;9.07;;;;;;;;;;5075925;28;20037;-88
2023/10/15 02:03:34;;;;;;;13.02;9.68;;;;;;;;;;5053720;28;20029;-87
2023/10/15 02:06:09;;;;;;;13.93;9.65;;;;;;;;;;5072471;28;20023;-88
2023/10/15 02:08:39;;;;;;;15.18;10.25;;;;;;;;;;5073149;28;20402;-87
2023/10/15 02:11:15;;;;;;;16.25;9.65;;;;;;;;;;5078203;28;20028;-87
2023/10/15 02:13:44;;;;;;;14.17;10.40;;;;;;;;;;5077383;28;20025;-88
2023/10/15 02:16:15;;;;;;;11.02;9.52;;;;;;;;;;5072912;28;20017;-86
2023/10/15 02:18:44;;;;;;;14.95;9.85;;;;;;;;;;5072558;28;20067;-87
2023/10/15 02:21:11;;;;;;;14.77;9.23;;;;;;;;;;5052886;28;20108;-86
2023/10/15 02:23:48;;;;;;;14.13;9.45;;;;;;;;;;5088090;28;20046;-86
2023/10/15 02:26:18;;;;;;;12.63;9.60;;;;;;;;;;5090480;28;20069;-87
2023/10/15 02:28:44;;;;;;;12.10;9.93;;;;;;;;;;5065177;28;20040;-87
2023/10/15 02:31:14;;;;;;;12.20;10.02;;;;;;;;;;5056301;28;20021;-88
2023/10/15 02:33:40;;;;;;;13.05;9.82;;;;;;;;;;5055422;28;20477;-88
2023/10/15 02:36:09;;;;;;;14.45;9.93;;;;;;;;;;5073604;28;20046;-86
2023/10/15 02:38:36;;;;;;;11.65;9.90;;;;;;;;;;5074224;28;20021;-89
2023/10/15 02:43:29;;;;;;;15.32;10.15;;;;;;;;;;5075035;28;20037;-87
2023/10/15 02:48:57;;;;;;;11.63;9.45;;;;;;;;;;4972751;28;20027;-88
2023/10/15 02:51:23;;;;;;;17.52;9.27;;;;;;;;;;5041032;28;20497;-89
2023/10/15 02:53:52;;;;;;;13.07;9.57;;;;;;;;;;5074342;28;20031;-89
2023/10/15 02:56:18;;;;;;;13.00;9.43;;;;;;;;;;5073386;28;20048;-90
2023/10/15 02:58:45;;;;;;;12.43;9.95;;;;;;;;;;5073288;28;20035;-87
2023/10/15 03:01:19;;;;;;;10.77;8.68;;;;;;;;;;5073733;28;20024;-88
2023/10/15 03:03:52;;;;;;;13.65;9.18;;;;;;;;;;5055477;28;20016;-85
2023/10/15 03:06:19;;;;;;;12.60;9.93;;;;;;;;;;5096641;28;20051;-88
2023/10/15 03:08:51;;;;;;;13.47;9.93;;;;;;;;;;5091749;28;20102;-86
2023/10/15 03:11:19;;;;;;;13.93;9.50;;;;;;;;;;5072489;28;20436;-87
2023/10/15 03:13:53;;;;;;;11.75;9.52;;;;;;;;;;5074494;28;20107;-88
2023/10/15 03:16:21;;;;;;;16.20;10.07;;;;;;;;;;5074245;28;20440;-87
2023/10/15 03:18:48;;;;;;;;;;;;;;;;;;5054987;28;20028;-87
2023/10/15 03:24:07;;;;;;;15.45;9.65;;;;;;;;;;5068077;28;20112;-89
2023/10/15 03:26:35;;;;;;;12.07;9.10;;;;;;;;;;5073351;28;20046;-88
2023/10/15 03:29:09;;;;;;;13.18;10.90;;;;;;;;;;5074577;28;20032;-89
2023/10/15 03:31:37;;;;;;;15.75;10.20;;;;;;;;;;5056746;28;20025;-86
2023/10/15 03:39:24;;;;;;;13.95;11.20;;;;;;;;;;5087158;28;20036;-87
2023/10/15 03:41:59;;;;;;;13.13;10.65;;;;;;;;;;5077424;28;20377;-87
2023/10/15 03:44:32;;;;;;;13.85;9.30;;;;;;;;;;5077279;28;20111;-87
2023/10/15 03:47:05;;;;;;;18.15;10.73;;;;;;;;;;5075993;28;20028;-87
2023/10/15 03:49:35;;;;;;;12.50;9.77;;;;;;;;;;5084695;28;20020;-88
2023/10/15 03:52:08;;;;;;;11.77;8.13;;;;;;;;;;5076529;28;20021;-89
2023/10/15 03:54:37;;;;;;;13.93;11.10;;;;;;;;;;5075987;28;20044;-87
2023/10/15 03:57:06;;;;;;;14.30;9.88;;;;;;;;;;5076159;28;20025;-88
2023/10/15 03:59:42;;;;;;;13.90;9.77;;;;;;;;;;5076005;28;20028;-90
2023/10/15 04:02:11;;;;;;;11.30;9.70;;;;;;;;;;5077443;28;20021;-90
2023/10/15 04:04:38;;;;;;;12.98;11.00;;;;;;;;;;5079221;28;20032;-88
2023/10/15 04:07:18;;;;;;;14.03;9.33;;;;;;;;;;5062138;28;20418;-87
2023/10/15 04:09:44;;;;;;;16.55;9.95;;;;;;;;;;5081941;28;20319;-89
2023/10/15 04:12:11;;;;;;;16.38;10.50;;;;;;;;;;5059849;28;20021;-88
2023/10/15 04:14:37;;;;;;;14.63;10.13;;;;;;;;;;5077931;28;20442;-88
2023/10/15 04:17:06;;;;;;;15.45;10.48;;;;;;;;;;5077240;28;20039;-87
2023/10/15 04:19:35;;;;;;;16.80;11.13;;;;;;;;;;5075574;28;20497;-88
2023/10/15 04:22:09;;;;;;;14.05;10.60;;;;;;;;;;5075450;28;20071;-88
2023/10/15 04:24:36;;;;;;;17.83;10.60;;;;;;;;;;5074621;28;20042;-86
2023/10/15 04:27:06;;;;;;;14.75;10.45;;;;;;;;;;5056432;28;20036;-87
2023/10/15 04:29:46;;;;;;;15.00;10.90;;;;;;;;;;5074742;28;20044;-88
2023/10/15 04:32:17;;;;;;;15.20;10.48;;;;;;;;;;5074624;28;20032;-90
2023/10/15 04:34:44;;;;;;;12.95;11.40;;;;;;;;;;5075093;28;20108;-87
2023/10/15 04:37:16;;;;;;;12.87;10.60;;;;;;;;;;5075542;28;20032;-89
2023/10/15 04:39:51;;;;;;;14.02;11.73;;;;;;;;;;5085439;28;20245;-88
2023/10/15 04:42:41;;;;;;;17.35;11.07;;;;;;;;;;5098347;28;20054;-88
2023/10/15 04:47:54;;;;;;;16.23;10.27;;;;;;;;;;5075755;28;20046;-87
2023/10/15 04:50:21;;;;;;;17.35;11.95;;;;;;;;;;5057733;28;20024;-88
2023/10/15 04:52:47;;;;;;;16.43;12.20;;;;;;;;;;5075360;28;20028;-89
2023/10/15 04:55:17;;;;;;;17.08;11.35;;;;;;;;;;5075011;28;20371;-90
2023/10/15 04:57:44;;;;;;;15.82;11.23;;;;;;;;;;5075275;28;20016;-89
2023/10/15 05:00:10;;;;;;;;;;;;;;;;;;5078653;28;20036;-91
2023/10/15 05:02:36;;;;;;;16.95;11.82;;;;;;;;;;5084878;28;19905;-90
2023/10/15 05:05:05;;;;;;;13.85;11.70;;;;;;;;;;5070897;28;20063;-89
2023/10/15 05:07:32;;;;;;;16.52;12.50;;;;;;;;;;5076356;28;20034;-92
2023/10/15 05:09:59;;;;;;;15.90;13.53;;;;;;;;;;5074467;28;20051;-88
2023/10/15 05:12:26;;;;;;;19.67;13.57;;;;;;;;;;5068923;28;20323;-89
2023/10/15 05:14:53;;;;;;;17.65;13.70;;;;;;;;;;5037353;28;20025;-90
2023/10/15 05:17:20;;;;;;;;;;;;;;;;;;5057958;28;20078;-89
2023/10/15 05:19:53;;;;;;;18.05;13.73;;;;;;;;;;5074732;28;19952;-92
2023/10/15 05:22:19;;;;;;;18.58;14.45;;;;;;;;;;5057869;28;20056;-91
2023/10/15 05:24:45;;;;;;;21.88;15.07;;;;;;;;;;5081851;28;20035;-90
2023/10/15 05:27:12;;;;;;;22.05;15.55;;;;;;;;;;5078031;28;20040;-89
2023/10/15 05:29:39;;;;;;;20.35;14.70;;;;;;;;;;5075657;28;20020;-91
2023/10/15 05:32:06;;;;;;;18.95;15.30;;;;;;;;;;5074319;28;20032;-92
2023/10/15 05:34:32;;;;;;;21.70;15.23;;;;;;;;;;5057048;28;20020;-89
2023/10/15 05:36:58;;;;;;;19.08;14.25;;;;;;;;;;5074614;28;20096;-92
2023/10/15 05:39:24;;;;;;;20.92;15.60;;;;;;;;;;5076040;28;20032;-91
2023/10/15 05:41:52;;;;;;;25.42;15.75;;;;;;;;;;5056690;28;20066;-90
2023/10/15 05:44:18;;;;;;;17.52;14.48;;;;;;;;;;5078019;28;20024;-90
2023/10/15 05:46:46;;;;;;;24.33;16.25;;;;;;;;;;5074730;28;20032;-91
2023/10/15 05:49:12;;;;;;;21.90;15.60;;;;;;;;;;5057009;28;20020;-90
2023/10/15 05:51:38;;;;;;;22.23;15.02;;;;;;;;;;5074575;28;20021;-90
2023/10/15 05:54:05;;;;;;;15.57;10.23;;;;;;;;;;5056159;28;20021;-91
2023/10/15 05:56:33;;;;;;;9.07;4.85;;;;;;;;;;5074266;28;20028;-90
2023/10/15 05:58:59;;;;;;;5.55;4.32;;;;;;;;;;5056638;28;20807;-90
2023/10/15 06:01:25;;;;;;;6.88;4.45;;;;;;;;;;5067225;28;20099;-90
2023/10/15 06:03:51;;;;;;;7.18;4.13;;;;;;;;;;5055284;28;20016;-89
2023/10/15 06:06:17;;;;;;;10.98;4.53;;;;;;;;;;5077160;28;20428;-87
2023/10/15 06:08:43;;;;;;;7.50;4.50;;;;;;;;;;5074844;28;20017;-90
2023/10/15 06:11:09;;;;;;;6.15;4.13;;;;;;;;;;5074823;28;20032;-89
2023/10/15 06:13:36;;;;;;;7.82;4.30;;;;;;;;;;5079270;28;20040;-88
2023/10/15 06:16:04;;;;;;;4.35;3.67;;;;;;;;;;5073659;28;20005;-88
2023/10/15 06:18:30;;;;;;;5.03;3.75;;;;;;;;;;5065193;28;20029;-89
2023/10/15 06:20:56;;;;;;;6.18;3.47;;;;;;;;;;5060994;28;20037;-90
2023/10/15 06:23:22;;;;;;;7.32;4.18;;;;;;;;;;5080926;28;20047;-88
2023/10/15 06:25:49;;;;;;;7.68;4.13;;;;;;;;;;5073350;28;20096;-90
2023/10/15 06:28:15;;;;;;;6.28;4.38;;;;;;;;;;5058059;28;20033;-92
2023/10/15 06:30:43;;;;;;;8.18;4.07;;;;;;;;;;5068465;28;20047;-90
2023/10/15 06:33:09;;;;;;;8.30;5.13;;;;;;;;;;5072350;28;20021;-90
2023/10/15 06:35:35;;;;;;;8.75;5.10;;;;;;;;;;5052363;28;20112;-89
2023/10/15 06:38:01;;;;;;;7.80;4.28;;;;;;;;;;5066193;28;20104;-90
2023/10/15 06:40:28;;;;;;;6.65;4.47;;;;;;;;;;5066101;28;20021;-90
2023/10/15 06:43:00;;;;;;;18.40;8.88;;;;;;;;;;5050206;28;20032;-88
2023/10/15 06:45:27;;;;;;;9.20;4.07;;;;;;;;;;5080219;28;20032;-89
2023/10/15 06:47:55;;;;;;;4.97;3.30;;;;;;;;;;5079219;28;20053;-88
2023/10/15 06:50:21;;;;;;;8.20;3.05;;;;;;;;;;5029069;28;20080;-91
2023/10/15 06:52:48;;;;;;;7.25;3.15;;;;;;;;;;5075516;28;20039;-92
2023/10/15 06:55:15;;;;;;;7.82;2.70;;;;;;;;;;5075349;28;20733;-90
2023/10/15 06:57:42;;;;;;;;;;;;;;;;;;5059063;28;20041;-90
2023/10/15 07:00:12;;;;;;;7.00;2.72;;;;;;;;;;5073823;28;19897;-88
2023/10/15 07:02:39;;;;;;;5.90;3.47;;;;;;;;;;5076652;28;20017;-90
2023/10/15 07:05:05;;;;;;;3.83;2.53;;;;;;;;;;5081611;28;20080;-92
2023/10/15 07:07:35;;;;;;;6.22;2.35;;;;;;;;;;5052468;28;20033;-93
2023/10/15 07:10:05;;;;;;;3.75;2.20;;;;;;;;;;5046188;28;20021;-92
2023/10/15 07:12:32;;;;;;;3.55;2.40;;;;;;;;;;5047001;28;20021;-93
2023/10/15 07:15:01;;;;;;;4.97;2.17;;;;;;;;;;5071583;28;20029;-91
2023/10/15 07:17:27;;;;;;;4.07;1.85;;;;;;;;;;5042273;28;20025;-90
2023/10/15 07:19:53;;;;;;;3.50;2.40;;;;;;;;;;5070374;28;20405;-89
2023/10/15 07:22:20;;;;;;;5.15;2.22;;;;;;;;;;5060521;28;20052;-87
2023/10/15 07:24:46;;;;;;;4.80;2.20;;;;;;;;;;5078189;28;20024;-91
2023/10/15 07:27:13;;;;;;;6.38;2.85;;;;;;;;;;5078641;28;20401;-90
2023/10/15 07:29:39;;;;;;;3.05;1.95;;;;;;;;;;5061863;28;20043;-89
2023/10/15 07:32:07;;;;;;;5.45;2.22;;;;;;;;;;5081947;28;20108;-90
2023/10/15 07:34:33;;;;;;;;;;;;;;;;;;5083195;28;20047;-89
2023/10/15 07:37:01;;;;;;;3.38;2.05;;;;;;;;;;5083725;28;19939;-87
2023/10/15 07:39:27;;;;;;;4.68;2.15;;;;;;;;;;5086825;28;20039;-89
2023/10/15 07:41:54;;;;;;;4.18;2.30;;;;;;;;;;5092978;28;20024;-88
2023/10/15 07:44:20;;;;;;;4.22;2.28;;;;;;;;;;5070183;28;20036;-90
2023/10/15 07:46:51;;;;;;;3.92;2.10;;;;;;;;;;5080218;28;20042;-88
2023/10/15 07:49:18;;;;;;;5.25;2.30;;;;;;;;;;5087337;28;20063;-89
2023/10/15 07:51:44;;;;;;;2.40;1.90;;;;;;;;;;5072761;28;20107;-89
2023/10/15 07:54:10;;;;;;;6.18;2.15;;;;;;;;;;5059287;28;20042;-89
2023/10/15 07:56:36;;;;;;;3.17;2.03;;;;;;;;;;5058846;28;20428;-88
2023/10/15 07:59:08;;;;;;;3.63;2.05;;;;;;;;;;5059451;28;20438;-90
2023/10/15 08:01:36;;;;;;;6.80;2.00;;;;;;;;;;5077157;28;20048;-90
2023/10/15 08:04:03;;;;;;;4.72;2.03;;;;;;;;;;5077091;28;20052;-89
2023/10/15 08:06:39;;;;;;;3.10;1.88;;;;;;;;;;5059157;28;20021;-90
2023/10/15 08:09:10;;;;;;;6.65;2.42;;;;;;;;;;5079119;28;20020;-91
2023/10/15 08:11:36;;;;;;;5.82;2.53;;;;;;;;;;5077671;28;20051;-89
2023/10/15 08:14:02;;;;;;;4.65;2.17;;;;;;;;;;5076854;28;20020;-89
2023/10/15 08:16:28;;;;;;;6.10;2.28;;;;;;;;;;5059056;28;20032;-90
2023/10/15 08:18:54;;;;;;;4.40;2.47;;;;;;;;;;5076990;28;20032;-89
2023/10/15 08:21:21;;;;;;;3.03;1.90;;;;;;;;;;5076802;28;20446;-89
2023/10/15 08:23:47;;;;;;;3.73;2.27;;;;;;;;;;5059431;28;20042;-91
2023/10/15 08:26:15;;;;;;;4.80;2.17;;;;;;;;;;5059095;28;20111;-88
2023/10/15 08:28:41;;;;;;;4.15;2.25;;;;;;;;;;5065835;28;20025;-89
2023/10/15 08:31:07;;;;;;;4.80;2.67;;;;;;;;;;5059964;28;20017;-91
2023/10/15 08:33:39;;;;;;;4.90;1.95;;;;;;;;;;5082154;28;20021;-90
2023/10/15 08:36:07;;;;;;;5.40;2.10;;;;;;;;;;5082484;28;20036;-90
2023/10/15 08:38:34;;;;;;;;;;;;;;;;;;5070545;28;20035;-90
2023/10/15 08:41:04;;;;;;;5.20;2.58;;;;;;;;;;5070336;28;19912;-91
2023/10/15 08:43:35;;;;;;;5.13;3.15;;;;;;;;;;5065948;28;20025;-91
2023/10/15 08:46:09;;;;;;;8.15;2.75;;;;;;;;;;5075589;28;20048;-92
2023/10/15 08:48:37;;;;;;;6.75;2.38;;;;;;;;;;5060549;28;20136;-92
2023/10/15 08:51:03;;;;;;;7.38;2.83;;;;;;;;;;5061555;28;20021;-92
2023/10/15 08:53:31;;;;;;;7.72;3.30;;;;;;;;;;5063083;28;20028;-90
2023/10/15 08:56:01;;;;;;;4.53;3.15;;;;;;;;;;5060654;28;20184;-91
2023/10/15 08:58:28;;;;;;;7.60;3.30;;;;;;;;;;5062769;28;20039;-90
2023/10/15 09:00:57;;;;;;;;;;;;;;;;;;5056572;28;20406;-90
2023/10/15 09:03:24;;;;;;;9.75;3.17;;;;;;;;;;5079268;28;19938;-92
2023/10/15 09:05:53;;;;;;;6.47;2.72;;;;;;;;;;5061744;28;20029;-93
2023/10/15 09:08:20;;;;;;;6.85;3.38;;;;;;;;;;5076155;28;20039;-90
2023/10/15 09:10:46;;;;;;;6.97;3.37;;;;;;;;;;5053951;28;20074;-91
2023/10/15 09:13:16;;;;;;;3.90;2.70;;;;;;;;;;5075050;28;20058;-91
2023/10/15 09:15:50;;;;;;;8.18;2.83;;;;;;;;;;5049775;28;20023;-93
2023/10/15 09:18:16;;;;;;;6.70;2.53;;;;;;;;;;5060635;28;20186;-92
2023/10/15 09:20:52;;;;;;;10.80;3.78;;;;;;;;;;5065298;28;20047;-91
2023/10/15 09:23:22;;;;;;;7.63;3.33;;;;;;;;;;5073408;28;20021;-90
2023/10/15 09:25:58;;;;;;;7.43;2.85;;;;;;;;;;5085307;28;20020;-88
2023/10/15 09:28:33;;;;;;;8.10;3.38;;;;;;;;;;5062109;28;20040;-92
2023/10/15 09:31:20;;;;;;;6.47;2.42;;;;;;;;;;5062484;28;20464;-90
2023/10/15 09:33:51;;;;;;;8.77;2.33;;;;;;;;;;5085042;28;20107;-92
2023/10/15 09:36:17;;;;;;;8.88;2.55;;;;;;;;;;5064254;28;20485;-89
2023/10/15 09:38:45;;;;;;;7.10;2.67;;;;;;;;;;5059006;28;20031;-90
2023/10/15 09:41:12;;;;;;;4.40;2.60;;;;;;;;;;5046434;28;20040;-90
2023/10/15 09:43:38;;;;;;;6.27;2.43;;;;;;;;;;5043293;28;20409;-88
2023/10/15 09:46:05;;;;;;;8.18;2.50;;;;;;;;;;5066225;28;20250;-88
2023/10/15 09:48:33;;;;;;;7.07;3.33;;;;;;;;;;5075160;28;20024;-90
2023/10/15 09:51:00;;;;;;;7.72;3.03;;;;;;;;;;5056962;28;20369;-89
2023/10/15 09:53:28;;;;;;;7.63;2.10;;;;;;;;;;5056772;28;20074;-91
2023/10/15 09:55:57;;;;;;;7.00;2.33;;;;;;;;;;5058601;28;20081;-92
2023/10/15 09:58:24;;;;;;;7.32;2.63;;;;;;;;;;5075781;28;20146;-87
2023/10/15 10:01:17;;;;;;;5.10;1.80;;;;;;;;;;5056654;28;20029;-85
2023/10/15 10:03:49;;;;;;;10.30;2.92;;;;;;;;;;5072653;28;20478;-86
2023/10/15 10:06:33;;;;;;;8.52;2.78;;;;;;;;;;5073213;28;20035;-81
2023/10/15 10:09:05;;;;;;;7.65;2.58;;;;;;;;;;5072281;28;20055;-83
2023/10/15 10:11:38;;;;;;;13.98;2.85;;;;;;;;;;5073207;28;20028;-82
2023/10/15 10:14:15;;;;;;;4.50;2.25;;;;;;;;;;5072663;28;20147;-83
2023/10/15 10:16:42;;;;;;;6.23;2.33;;;;;;;;;;5054345;28;20017;-85
2023/10/15 10:19:08;;;;;;;6.97;2.80;;;;;;;;;;5073141;28;20036;-86
2023/10/15 10:21:34;;;;;;;10.07;3.08;;;;;;;;;;5054884;28;20039;-82
2023/10/15 10:24:02;;;;;;;7.50;2.90;;;;;;;;;;5073634;28;20032;-84
2023/10/15 10:26:32;;;;;;;7.22;3.28;;;;;;;;;;5073487;28;20027;-82
2023/10/15 10:29:01;;;;;;;9.07;2.83;;;;;;;;;;5073304;28;20032;-84
2023/10/15 10:31:30;;;;;;;8.90;3.50;;;;;;;;;;5055579;28;20025;-86
2023/10/15 10:34:01;;;;;;;7.43;2.92;;;;;;;;;;5071253;28;20017;-87
2023/10/15 10:36:30;;;;;;;8.50;3.03;;;;;;;;;;5057484;28;20482;-85
2023/10/15 10:38:56;;;;;;;9.50;3.83;;;;;;;;;;5062148;28;20046;-87
2023/10/15 10:41:31;;;;;;;8.25;3.03;;;;;;;;;;5078146;28;20087;-86
2023/10/15 10:43:58;;;;;;;7.45;2.95;;;;;;;;;;5075899;28;20104;-79
2023/10/15 10:46:24;;;;;;;7.43;3.58;;;;;;;;;;5056959;28;20091;-85
2023/10/15 10:49:25;;;;;;;7.63;2.95;;;;;;;;;;5069191;28;20040;-86
2023/10/15 10:52:14;;;;;;;8.45;4.43;;;;;;;;;;5085100;28;20382;-83
2023/10/15 10:54:40;;;;;;;9.25;2.45;;;;;;;;;;5055534;28;20047;-86
2023/10/15 10:57:07;;;;;;;11.07;4.30;;;;;;;;;;5083111;28;20025;-81
2023/10/15 10:59:33;;;;;;;9.77;4.15;;;;;;;;;;5077002;28;20040;-84
2023/10/15 11:02:00;;;;;;;7.18;2.90;;;;;;;;;;5054836;28;20055;-83
2023/10/15 11:04:26;;;;;;;9.52;3.33;;;;;;;;;;5056041;28;20048;-87
2023/10/15 11:06:53;;;;;;;6.93;3.08;;;;;;;;;;5044552;28;20037;-85
2023/10/15 11:09:19;;;;;;;8.15;3.47;;;;;;;;;;5078881;28;20048;-85
2023/10/15 11:11:53;;;;;;;10.52;3.88;;;;;;;;;;5075504;28;20081;-83
2023/10/15 11:14:23;;;;;;;9.63;4.45;;;;;;;;;;5056705;28;20071;-85
2023/10/15 11:16:50;;;;;;;5.28;3.33;;;;;;;;;;5060349;28;20120;-85
2023/10/15 11:19:17;;;;;;;10.63;3.35;;;;;;;;;;5078415;28;20185;-87
2023/10/15 11:21:43;;;;;;;9.80;3.38;;;;;;;;;;5068831;28;20028;-85
2023/10/15 11:24:12;;;;;;;7.60;2.75;;;;;;;;;;5087602;28;20070;-85
2023/10/15 11:26:45;;;;;;;9.43;3.38;;;;;;;;;;5083365;28;20447;-84
2023/10/15 11:29:15;;;;;;;8.05;3.15;;;;;;;;;;5077820;28;20059;-86
2023/10/15 11:31:44;;;;;;;11.35;4.28;;;;;;;;;;5076642;28;20102;-84
2023/10/15 11:34:17;;;;;;;10.05;3.65;;;;;;;;;;5072015;28;20081;-85
2023/10/15 11:36:44;;;;;;;9.93;3.10;;;;;;;;;;5058292;28;20482;-83
2023/10/15 11:39:56;;;;;;;6.82;3.22;;;;;;;;;;5058710;28;20197;-83
2023/10/15 11:42:03;;;;;;;5.53;2.20;;;;;;;;;;5067630;28;20025;-86
2023/10/15 11:44:33;;;;;;;4.38;3.03;;;;;;;;;;5057118;28;20354;-85
2023/10/15 11:47:15;;;;;;;8.85;3.97;;;;;;;;;;5056470;28;20024;-84
2023/10/15 11:49:45;;;;;;;8.95;3.88;;;;;;;;;;5062937;28;20020;-90
2023/10/15 11:52:18;;;;;;;6.55;3.67;;;;;;;;;;5060595;28;20027;-87
2023/10/15 11:54:49;;;;;;;12.20;3.80;;;;;;;;;;5076100;28;20124;-88
2023/10/15 11:57:21;;;;;;;7.13;4.47;;;;;;;;;;5077090;28;20071;-86
2023/10/15 11:59:48;;;;;;;7.20;4.13;;;;;;;;;;5056970;28;20060;-89
2023/10/15 12:02:14;;;;;;;10.38;3.90;;;;;;;;;;5078734;28;20091;-87
2023/10/15 12:04:41;;;;;;;9.60;3.40;;;;;;;;;;5076763;28;20052;-88
2023/10/15 12:07:16;;;;;;;10.23;4.13;;;;;;;;;;5059747;28;20032;-86
2023/10/15 12:09:47;;;;;;;7.50;3.53;;;;;;;;;;5076906;28;20027;-89
2023/10/15 12:12:14;;;;;;;9.60;3.75;;;;;;;;;;5079084;28;20017;-88
2023/10/15 12:14:40;;;;;;;6.85;3.60;;;;;;;;;;5087231;28;20032;-87
2023/10/15 12:17:06;;;;;;;10.90;3.83;;;;;;;;;;5062052;28;20132;-82
2023/10/15 12:19:34;;;;;;;11.90;3.65;;;;;;;;;;5061256;28;20171;-87
2023/10/15 12:22:01;;;;;;;8.90;3.53;;;;;;;;;;5062456;28;20046;-88
2023/10/15 12:24:27;;;;;;;7.85;3.70;;;;;;;;;;5062065;28;20048;-88
2023/10/15 12:26:53;;;;;;;10.13;4.63;;;;;;;;;;5061755;28;20033;-88
2023/10/15 12:29:28;;;;;;;5.75;3.03;;;;;;;;;;5064294;28;20405;-84
2023/10/15 12:31:56;;;;;;;9.77;4.40;;;;;;;;;;5072345;28;20021;-85
2023/10/15 12:34:24;;;;;;;9.52;3.85;;;;;;;;;;5076635;28;20021;-83
2023/10/15 12:36:50;;;;;;;8.98;4.00;;;;;;;;;;5080960;28;20020;-82
2023/10/15 12:39:16;;;;;;;12.10;4.13;;;;;;;;;;5092073;28;20021;-87
2023/10/15 12:41:43;;;;;;;13.10;4.75;;;;;;;;;;5076380;28;20028;-85
2023/10/15 12:44:12;;;;;;;14.30;4.35;;;;;;;;;;5057676;28;20472;-85
2023/10/15 12:46:39;;;;;;;7.40;3.45;;;;;;;;;;5079916;28;20058;-85
2023/10/15 12:49:05;;;;;;;9.60;3.95;;;;;;;;;;5059705;28;20070;-84
2023/10/15 12:51:31;;;;;;;10.43;4.07;;;;;;;;;;5074863;28;20031;-86
2023/10/15 12:53:58;;;;;;;10.05;4.13;;;;;;;;;;5078421;28;20063;-89
2023/10/15 12:56:24;;;;;;;12.60;5.47;;;;;;;;;;5081730;28;20037;-88
2023/10/15 12:58:56;;;;;;;10.88;3.38;;;;;;;;;;5072090;28;20016;-91
2023/10/15 13:01:59;;;;;;;;;;;;;;;;;;;;;
2023/10/15 13:04:59;;;;;;;9.77;6.28;;;;;;;;;;5074197;28;20021;-89
2023/10/15 13:08:10;;;;;;;;;;;;;;;;;;;;;
2023/10/15 13:13:56;;;;;;;10.23;3.83;;;;;;;;;;4980628;28;20165;-89
2023/10/15 13:19:59;;;;;;;11.52;3.55;;;;;;;;;;4953336;28;20055;-88
2023/10/15 13:29:29;;;;;;;5.43;2.92;;;;;;;;;;4926758;28;20046;-86
2023/10/15 13:32:13;;;;;;;8.48;3.47;;;;;;;;;;4978837;28;20058;-87
2023/10/15 13:37:51;;;;;;;5.07;2.65;;;;;;;;;;4970191;28;20529;-88
2023/10/15 13:40:36;;;;;;;;;;;;;;;;;;;;;
2023/10/15 13:58:22;;;;;;;11.93;5.18;;;;;;;;;;4515447;23;20139;-89
2023/10/15 14:15:50;;;;;;;7.03;3.10;;;;;;;;;;4526883;26;20050;-85
2023/10/15 14:18:33;;;;;;;8.70;3.42;;;;;;;;;;4993283;28;20463;-83
2023/10/15 14:21:06;;;;;;;10.57;3.80;;;;;;;;;;5011999;28;20033;-82
2023/10/15 14:24:12;;;;;;;8.65;4.50;;;;;;;;;;4982940;28;20038;-84
2023/10/15 14:52:52;;;;;;;;;;;;;;;;;;;;;
2023/10/15 14:58:23;;;;;;;8.95;3.50;;;;;;;;;;4787279;29;20078;-88
2023/10/15 15:00:49;;;;;;;9.15;4.88;;;;;;;;;;4788936;29;20051;-90
2023/10/15 15:03:20;;;;;;;12.50;4.00;;;;;;;;;;4786107;29;20142;-90
2023/10/15 15:05:49;;;;;;;10.45;4.55;;;;;;;;;;4804508;29;20063;-91
2023/10/15 15:08:16;;;;;;;7.32;2.97;;;;;;;;;;4817463;29;20031;-87
2023/10/15 15:10:42;;;;;;;7.15;4.50;;;;;;;;;;4817771;29;20035;-89
2023/10/15 15:13:09;;;;;;;7.63;4.55;;;;;;;;;;4847099;29;20059;-89
2023/10/15 15:15:35;;;;;;;8.50;3.78;;;;;;;;;;4914865;29;20050;-89
2023/10/15 15:18:02;;;;;;;8.23;3.97;;;;;;;;;;4930625;28;20058;-92
2023/10/15 15:20:31;;;;;;;10.20;4.32;;;;;;;;;;4969190;28;20090;-92
2023/10/15 15:22:57;;;;;;;11.82;4.68;;;;;;;;;;5035604;28;20029;-89
2023/10/15 15:25:26;;;;;;;8.48;4.05;;;;;;;;;;5023424;28;20047;-88
2023/10/15 15:27:52;;;;;;;10.90;4.35;;;;;;;;;;5006529;28;20041;-91
2023/10/15 15:30:19;;;;;;;9.00;3.83;;;;;;;;;;5056272;28;20024;-89
2023/10/15 15:32:48;;;;;;;8.73;4.22;;;;;;;;;;5060107;28;20033;-89
2023/10/15 15:35:15;;;;;;;13.40;5.35;;;;;;;;;;5035884;28;20025;-90
2023/10/15 15:37:42;;;;;;;8.85;3.92;;;;;;;;;;5032789;28;20028;-92
2023/10/15 15:40:11;;;;;;;13.20;4.45;;;;;;;;;;5047466;28;20033;-92
2023/10/15 15:42:49;;;;;;;9.55;5.18;;;;;;;;;;5012451;28;20025;-90
2023/10/15 15:45:15;;;;;;;13.18;5.80;;;;;;;;;;5025571;28;20097;-91
2023/10/15 15:47:41;;;;;;;7.53;4.57;;;;;;;;;;5061895;28;20346;-92
2023/10/15 15:50:11;;;;;;;9.40;4.38;;;;;;;;;;5044408;28;20027;-90
2023/10/15 15:52:37;;;;;;;6.38;3.67;;;;;;;;;;5017204;28;20052;-89
2023/10/15 15:55:04;;;;;;;9.25;4.53;;;;;;;;;;5023599;28;20033;-87
2023/10/15 15:57:30;;;;;;;10.15;4.75;;;;;;;;;;5033601;28;20470;-88
2023/10/15 15:59:56;;;;;;;5.28;3.42;;;;;;;;;;5039950;28;20029;-88
2023/10/15 16:02:25;;;;;;;10.73;3.92;;;;;;;;;;5055778;28;20032;-89
2023/10/15 16:04:51;;;;;;;8.25;3.97;;;;;;;;;;5032517;28;20021;-87
2023/10/15 16:07:17;;;;;;;8.25;4.50;;;;;;;;;;5029261;28;20097;-87
2023/10/15 16:09:43;;;;;;;8.52;4.43;;;;;;;;;;5036831;28;20112;-87
2023/10/15 16:12:10;;;;;;;7.78;5.15;;;;;;;;;;5033732;28;20036;-90
2023/10/15 16:14:36;;;;;;;9.82;3.97;;;;;;;;;;5010124;28;20095;-86
2023/10/15 16:17:03;;;;;;;11.13;4.85;;;;;;;;;;5034014;28;20026;-85
2023/10/15 16:19:29;;;;;;;12.07;4.53;;;;;;;;;;5037141;28;20025;-86
2023/10/15 16:21:56;;;;;;;9.27;4.85;;;;;;;;;;5032942;28;20470;-86
2023/10/15 16:24:22;;;;;;;9.60;4.45;;;;;;;;;;5031658;28;20482;-86
2023/10/15 16:26:48;;;;;;;7.70;4.03;;;;;;;;;;5021721;28;20076;-89
2023/10/15 16:29:14;;;;;;;8.55;4.18;;;;;;;;;;5039541;28;20028;-87
2023/10/15 16:31:40;;;;;;;7.82;3.60;;;;;;;;;;5038464;28;20112;-87